Terminal Aerodrome Forecast
Issued by NWS Pendleton, OR

Home | Current Version | Previous Version | Text Only | Print | Product List | Glossary On
Versions: 1 2 3 4 5 6 7 8 9 10 11 12 13 14 15
000
FTUS46 KPDT 181120
TAFPDT
TAF
KPDT 181120Z 1812/1912 14006KT P6SM SKC
     FM181900 28011G19KT P6SM FEW250
     FM190200 27014KT P6SM SCT250
     FM190900 23009KT P6SM FEW250=

USA.gov is the U.S. government's official web portal to all federal, state and local government web resources and services.